sensor_id;sensor_type;location;lat;lon;timestamp;P1;durP1;ratioP1;P2;durP2;ratioP2
33740;SDS011;20065;48.380;10.892;2022-10-10T00:00:24;9.48;;;5.63;;
33740;SDS011;20065;48.380;10.892;2022-10-10T00:03:10;11.60;;;5.88;;
33740;SDS011;20065;48.380;10.892;2022-10-10T00:05:57;9.00;;;6.30;;
33740;SDS011;20065;48.380;10.892;2022-10-10T00:08:44;10.15;;;5.45;;
33740;SDS011;20065;48.380;10.892;2022-10-10T00:11:30;11.15;;;6.05;;
33740;SDS011;20065;48.380;10.892;2022-10-10T00:14:17;8.98;;;4.88;;
33740;SDS011;20065;48.380;10.892;2022-10-10T00:17:03;9.55;;;6.03;;
33740;SDS011;20065;48.380;10.892;2022-10-10T00:19:50;9.07;;;5.65;;
33740;SDS011;20065;48.380;10.892;2022-10-10T00:22:37;8.30;;;5.13;;
33740;SDS011;20065;48.380;10.892;2022-10-10T00:25:23;11.90;;;5.65;;
33740;SDS011;20065;48.380;10.892;2022-10-10T00:28:10;12.50;;;6.10;;
33740;SDS011;20065;48.380;10.892;2022-10-10T00:30:57;8.48;;;5.70;;
33740;SDS011;20065;48.380;10.892;2022-10-10T00:33:44;11.15;;;5.95;;
33740;SDS011;20065;48.380;10.892;2022-10-10T00:36:30;10.38;;;5.80;;
33740;SDS011;20065;48.380;10.892;2022-10-10T00:39:17;10.43;;;6.50;;
33740;SDS011;20065;48.380;10.892;2022-10-10T00:42:03;9.90;;;6.88;;
33740;SDS011;20065;48.380;10.892;2022-10-10T00:48:00;12.75;;;6.93;;
33740;SDS011;20065;48.380;10.892;2022-10-10T00:53:38;11.68;;;6.30;;
33740;SDS011;20065;48.380;10.892;2022-10-10T00:56:27;11.75;;;6.47;;
33740;SDS011;20065;48.380;10.892;2022-10-10T00:59:15;12.52;;;6.93;;
33740;SDS011;20065;48.380;10.892;2022-10-10T01:02:02;12.07;;;6.70;;
33740;SDS011;20065;48.380;10.892;2022-10-10T01:04:48;12.00;;;7.35;;
33740;SDS011;20065;48.380;10.892;2022-10-10T01:07:35;17.00;;;8.35;;
33740;SDS011;20065;48.380;10.892;2022-10-10T01:10:21;10.90;;;7.93;;
33740;SDS011;20065;48.380;10.892;2022-10-10T01:13:20;11.32;;;7.88;;
33740;SDS011;20065;48.380;10.892;2022-10-10T01:19:08;9.20;;;6.22;;
33740;SDS011;20065;48.380;10.892;2022-10-10T01:25:27;12.23;;;7.28;;
33740;SDS011;20065;48.380;10.892;2022-10-10T01:31:04;12.07;;;7.95;;
33740;SDS011;20065;48.380;10.892;2022-10-10T01:36:58;13.98;;;7.53;;
33740;SDS011;20065;48.380;10.892;2022-10-10T01:42:46;13.50;;;8.27;;
33740;SDS011;20065;48.380;10.892;2022-10-10T01:45:34;12.13;;;8.40;;
33740;SDS011;20065;48.380;10.892;2022-10-10T01:48:30;13.90;;;8.80;;
33740;SDS011;20065;48.380;10.892;2022-10-10T02:11:13;14.10;;;10.77;;
33740;SDS011;20065;48.380;10.892;2022-10-10T02:14:11;21.50;;;14.27;;
33740;SDS011;20065;48.380;10.892;2022-10-10T02:16:59;20.17;;;13.68;;
33740;SDS011;20065;48.380;10.892;2022-10-10T02:19:48;19.92;;;13.80;;
33740;SDS011;20065;48.380;10.892;2022-10-10T02:22:37;27.08;;;14.85;;
33740;SDS011;20065;48.380;10.892;2022-10-10T02:25:28;20.90;;;14.35;;
33740;SDS011;20065;48.380;10.892;2022-10-10T02:31:04;19.30;;;13.90;;
33740;SDS011;20065;48.380;10.892;2022-10-10T02:33:57;21.25;;;14.20;;
33740;SDS011;20065;48.380;10.892;2022-10-10T02:36:49;22.00;;;14.05;;
33740;SDS011;20065;48.380;10.892;2022-10-10T02:39:38;23.17;;;14.85;;
33740;SDS011;20065;48.380;10.892;2022-10-10T02:42:26;21.90;;;14.52;;
33740;SDS011;20065;48.380;10.892;2022-10-10T02:45:14;23.00;;;15.82;;
33740;SDS011;20065;48.380;10.892;2022-10-10T02:48:00;20.30;;;14.55;;
33740;SDS011;20065;48.380;10.892;2022-10-10T02:50:47;19.65;;;15.30;;
33740;SDS011;20065;48.380;10.892;2022-10-10T02:53:34;19.90;;;15.00;;
33740;SDS011;20065;48.380;10.892;2022-10-10T02:56:22;23.00;;;15.60;;
33740;SDS011;20065;48.380;10.892;2022-10-10T02:59:08;20.00;;;15.90;;
33740;SDS011;20065;48.380;10.892;2022-10-10T03:01:55;20.70;;;16.05;;
33740;SDS011;20065;48.380;10.892;2022-10-10T03:04:41;23.83;;;16.63;;
33740;SDS011;20065;48.380;10.892;2022-10-10T03:07:29;29.50;;;14.45;;
33740;SDS011;20065;48.380;10.892;2022-10-10T03:10:15;25.95;;;16.85;;
33740;SDS011;20065;48.380;10.892;2022-10-10T03:13:02;22.55;;;15.55;;
33740;SDS011;20065;48.380;10.892;2022-10-10T03:15:48;22.27;;;16.02;;
33740;SDS011;20065;48.380;10.892;2022-10-10T03:18:35;22.60;;;16.33;;
33740;SDS011;20065;48.380;10.892;2022-10-10T03:21:22;26.00;;;15.93;;
33740;SDS011;20065;48.380;10.892;2022-10-10T03:24:08;22.92;;;15.82;;
33740;SDS011;20065;48.380;10.892;2022-10-10T03:26:55;27.98;;;17.77;;
33740;SDS011;20065;48.380;10.892;2022-10-10T03:29:41;22.88;;;16.15;;
33740;SDS011;20065;48.380;10.892;2022-10-10T03:32:28;23.80;;;16.95;;
33740;SDS011;20065;48.380;10.892;2022-10-10T03:35:14;24.00;;;18.00;;
33740;SDS011;20065;48.380;10.892;2022-10-10T03:38:01;23.27;;;17.73;;
33740;SDS011;20065;48.380;10.892;2022-10-10T03:40:47;26.13;;;18.70;;
33740;SDS011;20065;48.380;10.892;2022-10-10T03:43:34;25.88;;;18.50;;
33740;SDS011;20065;48.380;10.892;2022-10-10T03:46:20;27.38;;;18.85;;
33740;SDS011;20065;48.380;10.892;2022-10-10T03:49:07;22.75;;;16.85;;
33740;SDS011;20065;48.380;10.892;2022-10-10T03:51:54;24.77;;;18.10;;
33740;SDS011;20065;48.380;10.892;2022-10-10T03:54:40;25.23;;;18.10;;
33740;SDS011;20065;48.380;10.892;2022-10-10T03:57:27;24.35;;;17.98;;
33740;SDS011;20065;48.380;10.892;2022-10-10T04:00:13;28.02;;;17.17;;
33740;SDS011;20065;48.380;10.892;2022-10-10T04:03:00;26.23;;;17.67;;
33740;SDS011;20065;48.380;10.892;2022-10-10T04:05:50;25.77;;;16.80;;
33740;SDS011;20065;48.380;10.892;2022-10-10T04:08:37;23.67;;;16.75;;
33740;SDS011;20065;48.380;10.892;2022-10-10T04:11:23;28.27;;;18.88;;
33740;SDS011;20065;48.380;10.892;2022-10-10T04:14:10;30.45;;;20.15;;
33740;SDS011;20065;48.380;10.892;2022-10-10T04:16:57;29.08;;;20.83;;
33740;SDS011;20065;48.380;10.892;2022-10-10T04:19:43;27.90;;;19.33;;
33740;SDS011;20065;48.380;10.892;2022-10-10T04:22:30;28.42;;;19.88;;
33740;SDS011;20065;48.380;10.892;2022-10-10T04:25:16;27.50;;;20.25;;
33740;SDS011;20065;48.380;10.892;2022-10-10T04:28:03;30.02;;;19.50;;
33740;SDS011;20065;48.380;10.892;2022-10-10T04:30:49;32.75;;;21.23;;
33740;SDS011;20065;48.380;10.892;2022-10-10T04:33:36;28.90;;;19.95;;
33740;SDS011;20065;48.380;10.892;2022-10-10T04:36:22;25.40;;;19.05;;
33740;SDS011;20065;48.380;10.892;2022-10-10T04:39:09;27.98;;;19.30;;
33740;SDS011;20065;48.380;10.892;2022-10-10T04:41:55;27.10;;;18.98;;
33740;SDS011;20065;48.380;10.892;2022-10-10T04:44:42;30.60;;;20.80;;
33740;SDS011;20065;48.380;10.892;2022-10-10T04:47:29;29.58;;;19.95;;
33740;SDS011;20065;48.380;10.892;2022-10-10T04:50:15;30.07;;;20.50;;
33740;SDS011;20065;48.380;10.892;2022-10-10T04:53:02;31.27;;;20.60;;
33740;SDS011;20065;48.380;10.892;2022-10-10T04:55:48;38.00;;;21.95;;
33740;SDS011;20065;48.380;10.892;2022-10-10T04:58:35;31.60;;;21.00;;
33740;SDS011;20065;48.380;10.892;2022-10-10T05:01:21;35.90;;;23.30;;
33740;SDS011;20065;48.380;10.892;2022-10-10T05:04:08;35.50;;;21.83;;
33740;SDS011;20065;48.380;10.892;2022-10-10T05:06:54;37.00;;;22.15;;
33740;SDS011;20065;48.380;10.892;2022-10-10T05:09:41;32.90;;;20.88;;
33740;SDS011;20065;48.380;10.892;2022-10-10T05:12:27;34.60;;;22.02;;
33740;SDS011;20065;48.380;10.892;2022-10-10T05:15:14;33.72;;;22.45;;
33740;SDS011;20065;48.380;10.892;2022-10-10T05:18:01;30.38;;;19.23;;
33740;SDS011;20065;48.380;10.892;2022-10-10T05:20:48;25.67;;;17.92;;
33740;SDS011;20065;48.380;10.892;2022-10-10T05:23:35;25.40;;;17.75;;
33740;SDS011;20065;48.380;10.892;2022-10-10T05:26:22;29.45;;;18.13;;
33740;SDS011;20065;48.380;10.892;2022-10-10T05:29:09;22.65;;;16.20;;
33740;SDS011;20065;48.380;10.892;2022-10-10T05:31:55;23.63;;;16.83;;
33740;SDS011;20065;48.380;10.892;2022-10-10T05:34:42;22.65;;;15.43;;
33740;SDS011;20065;48.380;10.892;2022-10-10T05:37:29;23.00;;;15.65;;
33740;SDS011;20065;48.380;10.892;2022-10-10T05:40:15;21.35;;;16.40;;
33740;SDS011;20065;48.380;10.892;2022-10-10T05:43:03;17.60;;;13.30;;
33740;SDS011;20065;48.380;10.892;2022-10-10T05:45:49;16.30;;;11.55;;
33740;SDS011;20065;48.380;10.892;2022-10-10T05:48:36;13.10;;;10.30;;
33740;SDS011;20065;48.380;10.892;2022-10-10T05:51:23;11.68;;;9.60;;
33740;SDS011;20065;48.380;10.892;2022-10-10T05:54:10;13.00;;;9.10;;
33740;SDS011;20065;48.380;10.892;2022-10-10T05:56:56;17.40;;;9.30;;
33740;SDS011;20065;48.380;10.892;2022-10-10T05:59:43;12.57;;;8.75;;
33740;SDS011;20065;48.380;10.892;2022-10-10T06:02:29;13.85;;;8.77;;
33740;SDS011;20065;48.380;10.892;2022-10-10T06:05:16;10.73;;;8.30;;
33740;SDS011;20065;48.380;10.892;2022-10-10T06:08:03;11.52;;;7.93;;
33740;SDS011;20065;48.380;10.892;2022-10-10T06:10:49;9.10;;;7.70;;
33740;SDS011;20065;48.380;10.892;2022-10-10T06:13:36;11.48;;;7.00;;
33740;SDS011;20065;48.380;10.892;2022-10-10T06:16:24;9.73;;;6.82;;
33740;SDS011;20065;48.380;10.892;2022-10-10T06:19:10;10.80;;;7.00;;
33740;SDS011;20065;48.380;10.892;2022-10-10T06:21:57;10.07;;;5.68;;
33740;SDS011;20065;48.380;10.892;2022-10-10T06:24:43;7.82;;;6.38;;
33740;SDS011;20065;48.380;10.892;2022-10-10T06:27:30;7.53;;;5.85;;
33740;SDS011;20065;48.380;10.892;2022-10-10T06:30:17;8.53;;;6.07;;
33740;SDS011;20065;48.380;10.892;2022-10-10T06:33:03;9.00;;;7.10;;
33740;SDS011;20065;48.380;10.892;2022-10-10T06:35:50;7.88;;;5.90;;
33740;SDS011;20065;48.380;10.892;2022-10-10T06:38:37;8.20;;;5.90;;
33740;SDS011;20065;48.380;10.892;2022-10-10T06:41:24;10.27;;;5.85;;
33740;SDS011;20065;48.380;10.892;2022-10-10T06:44:10;10.25;;;6.05;;
33740;SDS011;20065;48.380;10.892;2022-10-10T06:46:57;7.83;;;5.50;;
33740;SDS011;20065;48.380;10.892;2022-10-10T06:49:44;9.82;;;6.00;;
33740;SDS011;20065;48.380;10.892;2022-10-10T06:52:30;13.40;;;5.50;;
33740;SDS011;20065;48.380;10.892;2022-10-10T06:55:17;8.35;;;6.05;;
33740;SDS011;20065;48.380;10.892;2022-10-10T06:58:03;7.43;;;5.17;;
33740;SDS011;20065;48.380;10.892;2022-10-10T07:00:50;19.00;;;6.40;;
33740;SDS011;20065;48.380;10.892;2022-10-10T07:03:37;9.87;;;6.77;;
33740;SDS011;20065;48.380;10.892;2022-10-10T07:06:24;9.40;;;6.03;;
33740;SDS011;20065;48.380;10.892;2022-10-10T07:09:10;7.73;;;5.40;;
33740;SDS011;20065;48.380;10.892;2022-10-10T07:11:57;14.07;;;5.50;;
33740;SDS011;20065;48.380;10.892;2022-10-10T07:14:44;7.40;;;5.53;;
33740;SDS011;20065;48.380;10.892;2022-10-10T07:17:30;8.07;;;5.30;;
33740;SDS011;20065;48.380;10.892;2022-10-10T07:20:17;8.60;;;5.73;;
33740;SDS011;20065;48.380;10.892;2022-10-10T07:23:03;10.90;;;6.07;;
33740;SDS011;20065;48.380;10.892;2022-10-10T07:25:50;7.20;;;5.10;;
33740;SDS011;20065;48.380;10.892;2022-10-10T07:28:37;6.40;;;4.83;;
33740;SDS011;20065;48.380;10.892;2022-10-10T07:31:24;13.13;;;5.80;;
33740;SDS011;20065;48.380;10.892;2022-10-10T07:34:11;13.80;;;5.03;;
33740;SDS011;20065;48.380;10.892;2022-10-10T07:36:57;11.70;;;5.13;;
33740;SDS011;20065;48.380;10.892;2022-10-10T07:39:44;9.90;;;4.77;;
33740;SDS011;20065;48.380;10.892;2022-10-10T07:42:30;6.40;;;4.23;;
33740;SDS011;20065;48.380;10.892;2022-10-10T07:45:17;6.90;;;4.60;;
33740;SDS011;20065;48.380;10.892;2022-10-10T07:48:04;7.87;;;4.57;;
33740;SDS011;20065;48.380;10.892;2022-10-10T07:50:51;8.37;;;4.97;;
33740;SDS011;20065;48.380;10.892;2022-10-10T07:53:37;6.50;;;4.50;;
33740;SDS011;20065;48.380;10.892;2022-10-10T07:56:25;6.37;;;3.60;;
33740;SDS011;20065;48.380;10.892;2022-10-10T07:59:11;9.88;;;4.78;;
33740;SDS011;20065;48.380;10.892;2022-10-10T08:01:58;7.10;;;3.80;;
33740;SDS011;20065;48.380;10.892;2022-10-10T08:04:44;9.13;;;4.47;;
33740;SDS011;20065;48.380;10.892;2022-10-10T08:07:31;6.80;;;4.73;;
33740;SDS011;20065;48.380;10.892;2022-10-10T08:10:18;7.20;;;4.70;;
33740;SDS011;20065;48.380;10.892;2022-10-10T08:13:05;6.47;;;4.47;;
33740;SDS011;20065;48.380;10.892;2022-10-10T08:15:52;5.60;;;4.47;;
33740;SDS011;20065;48.380;10.892;2022-10-10T08:18:39;8.23;;;4.73;;
33740;SDS011;20065;48.380;10.892;2022-10-10T08:21:25;5.53;;;4.13;;
33740;SDS011;20065;48.380;10.892;2022-10-10T08:24:12;5.23;;;3.87;;
33740;SDS011;20065;48.380;10.892;2022-10-10T08:26:58;7.60;;;4.50;;
33740;SDS011;20065;48.380;10.892;2022-10-10T08:29:45;7.47;;;4.17;;
33740;SDS011;20065;48.380;10.892;2022-10-10T08:32:32;6.27;;;3.90;;
33740;SDS011;20065;48.380;10.892;2022-10-10T08:35:18;5.47;;;4.13;;
33740;SDS011;20065;48.380;10.892;2022-10-10T08:38:05;5.97;;;4.10;;
33740;SDS011;20065;48.380;10.892;2022-10-10T08:40:54;6.40;;;4.43;;
33740;SDS011;20065;48.380;10.892;2022-10-10T08:43:50;6.30;;;4.00;;
33740;SDS011;20065;48.380;10.892;2022-10-10T08:46:57;8.63;;;4.83;;
33740;SDS011;20065;48.380;10.892;2022-10-10T08:52:41;8.47;;;4.50;;
33740;SDS011;20065;48.380;10.892;2022-10-10T08:55:29;6.80;;;4.00;;
33740;SDS011;20065;48.380;10.892;2022-10-10T08:58:22;11.20;;;4.93;;
33740;SDS011;20065;48.380;10.892;2022-10-10T09:01:11;7.03;;;4.00;;
33740;SDS011;20065;48.380;10.892;2022-10-10T09:04:00;6.63;;;4.00;;
33740;SDS011;20065;48.380;10.892;2022-10-10T09:15:36;5.50;;;4.17;;
33740;SDS011;20065;48.380;10.892;2022-10-10T09:21:16;8.80;;;5.00;;
33740;SDS011;20065;48.380;10.892;2022-10-10T09:26:59;7.50;;;4.73;;
33740;SDS011;20065;48.380;10.892;2022-10-10T09:32:39;14.20;;;5.30;;
33740;SDS011;20065;48.380;10.892;2022-10-10T09:35:28;9.03;;;5.77;;
33740;SDS011;20065;48.380;10.892;2022-10-10T09:38:26;9.10;;;5.27;;
33740;SDS011;20065;48.380;10.892;2022-10-10T09:41:18;8.50;;;5.00;;
33740;SDS011;20065;48.380;10.892;2022-10-10T09:44:08;8.33;;;5.17;;
33740;SDS011;20065;48.380;10.892;2022-10-10T09:46:57;9.23;;;5.20;;
33740;SDS011;20065;48.380;10.892;2022-10-10T09:49:44;10.73;;;5.73;;
33740;SDS011;20065;48.380;10.892;2022-10-10T09:52:31;12.73;;;5.30;;
33740;SDS011;20065;48.380;10.892;2022-10-10T09:55:22;6.37;;;4.53;;
33740;SDS011;20065;48.380;10.892;2022-10-10T10:07:02;7.80;;;4.53;;
33740;SDS011;20065;48.380;10.892;2022-10-10T10:09:50;11.73;;;4.50;;
33740;SDS011;20065;48.380;10.892;2022-10-10T10:12:41;8.67;;;4.27;;
33740;SDS011;20065;48.380;10.892;2022-10-10T10:15:30;11.20;;;3.90;;
33740;SDS011;20065;48.380;10.892;2022-10-10T10:26:44;8.90;;;3.30;;
33740;SDS011;20065;48.380;10.892;2022-10-10T10:29:32;6.30;;;3.50;;
33740;SDS011;20065;48.380;10.892;2022-10-10T10:32:29;9.30;;;3.70;;
33740;SDS011;20065;48.380;10.892;2022-10-10T10:35:27;6.77;;;3.20;;
33740;SDS011;20065;48.380;10.892;2022-10-10T10:41:28;8.80;;;3.20;;
33740;SDS011;20065;48.380;10.892;2022-10-10T10:47:19;8.30;;;2.87;;
33740;SDS011;20065;48.380;10.892;2022-10-10T10:53:14;5.03;;;2.73;;
33740;SDS011;20065;48.380;10.892;2022-10-10T11:01:59;5.87;;;2.97;;
33740;SDS011;20065;48.380;10.892;2022-10-10T11:04:53;8.60;;;3.43;;
33740;SDS011;20065;48.380;10.892;2022-10-10T11:07:47;8.53;;;3.43;;
33740;SDS011;20065;48.380;10.892;2022-10-10T11:13:41;6.47;;;3.10;;
33740;SDS011;20065;48.380;10.892;2022-10-10T11:16:54;6.00;;;2.67;;
33740;SDS011;20065;48.380;10.892;2022-10-10T11:19:58;5.90;;;2.83;;
33740;SDS011;20065;48.380;10.892;2022-10-10T11:22:48;4.80;;;2.50;;
33740;SDS011;20065;48.380;10.892;2022-10-10T11:25:44;7.50;;;3.40;;
33740;SDS011;20065;48.380;10.892;2022-10-10T11:28:35;7.07;;;3.07;;
33740;SDS011;20065;48.380;10.892;2022-10-10T11:31:30;9.00;;;3.57;;
33740;SDS011;20065;48.380;10.892;2022-10-10T11:34:20;5.20;;;2.83;;
33740;SDS011;20065;48.380;10.892;2022-10-10T11:37:13;8.13;;;3.30;;
33740;SDS011;20065;48.380;10.892;2022-10-10T11:40:21;7.03;;;2.83;;
33740;SDS011;20065;48.380;10.892;2022-10-10T11:43:14;7.40;;;3.20;;
33740;SDS011;20065;48.380;10.892;2022-10-10T11:46:06;9.30;;;3.57;;
33740;SDS011;20065;48.380;10.892;2022-10-10T11:48:59;6.50;;;2.97;;
33740;SDS011;20065;48.380;10.892;2022-10-10T12:00:15;6.27;;;2.97;;
33740;SDS011;20065;48.380;10.892;2022-10-10T12:03:02;11.53;;;5.00;;
33740;SDS011;20065;48.380;10.892;2022-10-10T12:05:50;9.27;;;3.40;;
33740;SDS011;20065;48.380;10.892;2022-10-10T12:08:39;7.23;;;2.80;;
33740;SDS011;20065;48.380;10.892;2022-10-10T12:11:29;5.83;;;2.37;;
33740;SDS011;20065;48.380;10.892;2022-10-10T12:14:17;5.00;;;2.60;;
33740;SDS011;20065;48.380;10.892;2022-10-10T12:17:04;4.70;;;2.40;;
33740;SDS011;20065;48.380;10.892;2022-10-10T12:19:50;5.73;;;2.83;;
33740;SDS011;20065;48.380;10.892;2022-10-10T12:22:37;7.90;;;2.77;;
33740;SDS011;20065;48.380;10.892;2022-10-10T12:25:34;12.37;;;3.17;;
33740;SDS011;20065;48.380;10.892;2022-10-10T12:33:59;5.97;;;2.80;;
33740;SDS011;20065;48.380;10.892;2022-10-10T12:37:08;6.60;;;3.50;;
33740;SDS011;20065;48.380;10.892;2022-10-10T12:43:02;7.60;;;2.77;;
33740;SDS011;20065;48.380;10.892;2022-10-10T12:45:55;9.33;;;3.40;;
33740;SDS011;20065;48.380;10.892;2022-10-10T12:48:44;6.70;;;3.00;;
33740;SDS011;20065;48.380;10.892;2022-10-10T12:51:44;8.77;;;3.60;;
33740;SDS011;20065;48.380;10.892;2022-10-10T12:54:36;8.37;;;3.63;;
33740;SDS011;20065;48.380;10.892;2022-10-10T12:57:57;8.73;;;3.57;;
33740;SDS011;20065;48.380;10.892;2022-10-10T13:00:40;6.80;;;3.47;;
33740;SDS011;20065;48.380;10.892;2022-10-10T13:09:22;8.10;;;2.80;;
33740;SDS011;20065;48.380;10.892;2022-10-10T13:12:29;4.97;;;2.60;;
33740;SDS011;20065;48.380;10.892;2022-10-10T13:15:17;7.07;;;2.83;;
33740;SDS011;20065;48.380;10.892;2022-10-10T13:18:04;11.37;;;3.07;;
33740;SDS011;20065;48.380;10.892;2022-10-10T13:20:51;9.00;;;2.67;;
33740;SDS011;20065;48.380;10.892;2022-10-10T13:23:41;9.00;;;2.63;;
33740;SDS011;20065;48.380;10.892;2022-10-10T13:26:30;8.47;;;3.00;;
33740;SDS011;20065;48.380;10.892;2022-10-10T13:29:20;5.50;;;3.20;;
33740;SDS011;20065;48.380;10.892;2022-10-10T13:32:10;5.43;;;2.80;;
33740;SDS011;20065;48.380;10.892;2022-10-10T13:34:58;7.53;;;3.30;;
33740;SDS011;20065;48.380;10.892;2022-10-10T13:37:46;8.33;;;3.23;;
33740;SDS011;20065;48.380;10.892;2022-10-10T13:40:35;7.60;;;2.57;;
33740;SDS011;20065;48.380;10.892;2022-10-10T13:43:21;11.77;;;2.87;;
33740;SDS011;20065;48.380;10.892;2022-10-10T13:49:26;9.60;;;2.70;;
33740;SDS011;20065;48.380;10.892;2022-10-10T13:52:20;7.93;;;3.40;;
33740;SDS011;20065;48.380;10.892;2022-10-10T13:55:40;6.10;;;3.27;;
33740;SDS011;20065;48.380;10.892;2022-10-10T13:58:19;9.43;;;3.20;;
33740;SDS011;20065;48.380;10.892;2022-10-10T14:01:28;7.30;;;2.43;;
33740;SDS011;20065;48.380;10.892;2022-10-10T14:04:33;11.30;;;3.63;;
33740;SDS011;20065;48.380;10.892;2022-10-10T14:07:22;7.33;;;2.87;;
33740;SDS011;20065;48.380;10.892;2022-10-10T14:10:12;10.60;;;3.70;;
33740;SDS011;20065;48.380;10.892;2022-10-10T14:12:59;6.50;;;2.80;;
33740;SDS011;20065;48.380;10.892;2022-10-10T14:15:48;6.70;;;2.93;;
33740;SDS011;20065;48.380;10.892;2022-10-10T14:18:37;9.40;;;3.17;;
33740;SDS011;20065;48.380;10.892;2022-10-10T14:21:24;10.40;;;3.90;;
33740;SDS011;20065;48.380;10.892;2022-10-10T14:24:10;13.67;;;3.63;;
33740;SDS011;20065;48.380;10.892;2022-10-10T14:26:57;15.73;;;3.87;;
33740;SDS011;20065;48.380;10.892;2022-10-10T14:29:49;12.60;;;3.27;;
33740;SDS011;20065;48.380;10.892;2022-10-10T14:32:36;8.23;;;3.03;;
33740;SDS011;20065;48.380;10.892;2022-10-10T14:35:23;9.80;;;2.83;;
33740;SDS011;20065;48.380;10.892;2022-10-10T14:38:10;11.00;;;3.33;;
33740;SDS011;20065;48.380;10.892;2022-10-10T14:40:58;18.43;;;3.80;;
33740;SDS011;20065;48.380;10.892;2022-10-10T14:43:45;13.27;;;3.70;;
33740;SDS011;20065;48.380;10.892;2022-10-10T14:46:33;17.17;;;3.77;;
33740;SDS011;20065;48.380;10.892;2022-10-10T14:49:20;11.13;;;3.50;;
33740;SDS011;20065;48.380;10.892;2022-10-10T14:52:09;10.43;;;2.87;;
33740;SDS011;20065;48.380;10.892;2022-10-10T14:54:55;12.67;;;3.30;;
33740;SDS011;20065;48.380;10.892;2022-10-10T14:57:42;11.93;;;3.80;;
33740;SDS011;20065;48.380;10.892;2022-10-10T15:00:28;8.53;;;2.90;;
33740;SDS011;20065;48.380;10.892;2022-10-10T15:03:15;13.17;;;3.60;;
33740;SDS011;20065;48.380;10.892;2022-10-10T15:06:01;9.63;;;3.20;;
33740;SDS011;20065;48.380;10.892;2022-10-10T15:08:48;10.97;;;3.40;;
33740;SDS011;20065;48.380;10.892;2022-10-10T15:11:35;16.40;;;4.07;;
33740;SDS011;20065;48.380;10.892;2022-10-10T15:14:21;10.83;;;3.17;;
33740;SDS011;20065;48.380;10.892;2022-10-10T15:17:08;7.87;;;3.40;;
33740;SDS011;20065;48.380;10.892;2022-10-10T15:19:55;16.83;;;3.30;;
33740;SDS011;20065;48.380;10.892;2022-10-10T15:22:42;12.07;;;3.20;;
33740;SDS011;20065;48.380;10.892;2022-10-10T15:25:30;9.47;;;3.10;;
33740;SDS011;20065;48.380;10.892;2022-10-10T15:28:18;8.83;;;2.80;;
33740;SDS011;20065;48.380;10.892;2022-10-10T15:31:05;16.30;;;3.30;;
33740;SDS011;20065;48.380;10.892;2022-10-10T15:33:53;14.00;;;2.93;;
33740;SDS011;20065;48.380;10.892;2022-10-10T15:36:39;11.87;;;3.73;;
33740;SDS011;20065;48.380;10.892;2022-10-10T15:39:26;13.13;;;3.50;;
33740;SDS011;20065;48.380;10.892;2022-10-10T15:42:13;11.93;;;3.63;;
33740;SDS011;20065;48.380;10.892;2022-10-10T15:45:06;22.20;;;6.17;;
33740;SDS011;20065;48.380;10.892;2022-10-10T15:47:53;14.50;;;4.80;;
33740;SDS011;20065;48.380;10.892;2022-10-10T15:50:42;12.20;;;4.30;;
33740;SDS011;20065;48.380;10.892;2022-10-10T15:53:29;15.57;;;5.57;;
33740;SDS011;20065;48.380;10.892;2022-10-10T15:56:15;18.30;;;6.10;;
33740;SDS011;20065;48.380;10.892;2022-10-10T15:59:02;12.47;;;5.13;;
33740;SDS011;20065;48.380;10.892;2022-10-10T16:01:48;12.07;;;4.67;;
33740;SDS011;20065;48.380;10.892;2022-10-10T16:04:35;11.43;;;4.67;;
33740;SDS011;20065;48.380;10.892;2022-10-10T16:07:22;17.80;;;4.80;;
33740;SDS011;20065;48.380;10.892;2022-10-10T16:10:11;15.60;;;3.80;;
33740;SDS011;20065;48.380;10.892;2022-10-10T16:12:58;8.80;;;3.20;;
33740;SDS011;20065;48.380;10.892;2022-10-10T16:15:54;14.97;;;3.53;;
33740;SDS011;20065;48.380;10.892;2022-10-10T16:18:41;12.07;;;3.90;;
33740;SDS011;20065;48.380;10.892;2022-10-10T16:21:28;14.10;;;3.87;;
33740;SDS011;20065;48.380;10.892;2022-10-10T16:24:17;11.90;;;3.50;;
33740;SDS011;20065;48.380;10.892;2022-10-10T16:27:04;13.30;;;3.30;;
33740;SDS011;20065;48.380;10.892;2022-10-10T16:29:50;11.97;;;3.67;;
33740;SDS011;20065;48.380;10.892;2022-10-10T16:32:37;14.93;;;3.63;;
33740;SDS011;20065;48.380;10.892;2022-10-10T16:35:24;15.83;;;3.50;;
33740;SDS011;20065;48.380;10.892;2022-10-10T16:38:10;14.40;;;5.07;;
33740;SDS011;20065;48.380;10.892;2022-10-10T16:41:00;12.47;;;4.90;;
33740;SDS011;20065;48.380;10.892;2022-10-10T16:43:46;14.80;;;5.17;;
33740;SDS011;20065;48.380;10.892;2022-10-10T16:46:33;20.97;;;5.00;;
33740;SDS011;20065;48.380;10.892;2022-10-10T16:49:23;13.20;;;5.37;;
33740;SDS011;20065;48.380;10.892;2022-10-10T16:52:09;15.87;;;4.97;;
33740;SDS011;20065;48.380;10.892;2022-10-10T16:54:56;15.63;;;5.50;;
33740;SDS011;20065;48.380;10.892;2022-10-10T16:57:44;12.93;;;4.70;;
33740;SDS011;20065;48.380;10.892;2022-10-10T17:00:30;12.97;;;5.07;;
33740;SDS011;20065;48.380;10.892;2022-10-10T17:03:17;12.27;;;4.83;;
33740;SDS011;20065;48.380;10.892;2022-10-10T17:06:08;20.30;;;6.40;;
33740;SDS011;20065;48.380;10.892;2022-10-10T17:08:56;17.17;;;5.90;;
33740;SDS011;20065;48.380;10.892;2022-10-10T17:11:44;11.53;;;5.70;;
33740;SDS011;20065;48.380;10.892;2022-10-10T17:14:30;18.17;;;6.23;;
33740;SDS011;20065;48.380;10.892;2022-10-10T17:17:17;21.20;;;6.40;;
33740;SDS011;20065;48.380;10.892;2022-10-10T17:20:05;16.13;;;5.20;;
33740;SDS011;20065;48.380;10.892;2022-10-10T17:22:51;14.47;;;5.70;;
33740;SDS011;20065;48.380;10.892;2022-10-10T17:25:42;9.00;;;5.23;;
33740;SDS011;20065;48.380;10.892;2022-10-10T17:28:28;22.57;;;6.07;;
33740;SDS011;20065;48.380;10.892;2022-10-10T17:31:15;13.93;;;5.93;;
33740;SDS011;20065;48.380;10.892;2022-10-10T17:34:02;20.20;;;6.93;;
33740;SDS011;20065;48.380;10.892;2022-10-10T17:36:54;19.90;;;6.50;;
33740;SDS011;20065;48.380;10.892;2022-10-10T17:39:41;18.30;;;7.20;;
33740;SDS011;20065;48.380;10.892;2022-10-10T17:42:28;17.10;;;7.30;;
33740;SDS011;20065;48.380;10.892;2022-10-10T17:45:15;14.30;;;6.80;;
33740;SDS011;20065;48.380;10.892;2022-10-10T17:48:02;14.50;;;6.60;;
33740;SDS011;20065;48.380;10.892;2022-10-10T17:50:53;14.80;;;7.10;;
33740;SDS011;20065;48.380;10.892;2022-10-10T17:53:40;16.63;;;7.20;;
33740;SDS011;20065;48.380;10.892;2022-10-10T17:56:27;22.90;;;7.20;;
33740;SDS011;20065;48.380;10.892;2022-10-10T17:59:14;16.27;;;7.00;;
33740;SDS011;20065;48.380;10.892;2022-10-10T18:02:01;13.53;;;6.60;;
33740;SDS011;20065;48.380;10.892;2022-10-10T18:04:47;16.83;;;8.70;;
33740;SDS011;20065;48.380;10.892;2022-10-10T18:07:34;20.27;;;7.17;;
33740;SDS011;20065;48.380;10.892;2022-10-10T18:10:20;16.27;;;7.57;;
33740;SDS011;20065;48.380;10.892;2022-10-10T18:13:07;15.70;;;7.37;;
33740;SDS011;20065;48.380;10.892;2022-10-10T18:16:04;18.37;;;7.90;;
33740;SDS011;20065;48.380;10.892;2022-10-10T18:18:50;18.23;;;6.83;;
33740;SDS011;20065;48.380;10.892;2022-10-10T18:21:39;18.20;;;6.60;;
33740;SDS011;20065;48.380;10.892;2022-10-10T18:24:26;12.70;;;6.37;;
33740;SDS011;20065;48.380;10.892;2022-10-10T18:27:12;19.60;;;6.63;;
33740;SDS011;20065;48.380;10.892;2022-10-10T18:29:59;9.73;;;6.03;;
33740;SDS011;20065;48.380;10.892;2022-10-10T18:32:46;15.67;;;6.57;;